sensor_id;sensor_type;location;lat;lon;timestamp;P1;durP1;ratioP1;P2;durP2;ratioP2
72284;SDS011;60220;53.552;10.092;2022-11-11T00:00:19;10.57;;;2.85;;
72284;SDS011;60220;53.552;10.092;2022-11-11T00:02:49;9.30;;;2.95;;
72284;SDS011;60220;53.552;10.092;2022-11-11T00:05:16;8.82;;;2.72;;
72284;SDS011;60220;53.552;10.092;2022-11-11T00:07:44;8.07;;;2.83;;
72284;SDS011;60220;53.552;10.092;2022-11-11T00:10:11;5.80;;;2.50;;
72284;SDS011;60220;53.552;10.092;2022-11-11T00:12:37;7.15;;;3.30;;
72284;SDS011;60220;53.552;10.092;2022-11-11T00:15:04;6.93;;;2.97;;
72284;SDS011;60220;53.552;10.092;2022-11-11T00:17:34;10.98;;;2.90;;
72284;SDS011;60220;53.552;10.092;2022-11-11T00:20:21;9.52;;;3.28;;
72284;SDS011;60220;53.552;10.092;2022-11-11T00:23:07;9.50;;;2.90;;
72284;SDS011;60220;53.552;10.092;2022-11-11T00:26:03;10.57;;;4.13;;
72284;SDS011;60220;53.552;10.092;2022-11-11T00:28:30;10.82;;;3.25;;
72284;SDS011;60220;53.552;10.092;2022-11-11T00:31:02;12.73;;;3.30;;
72284;SDS011;60220;53.552;10.092;2022-11-11T00:33:32;6.57;;;3.03;;
72284;SDS011;60220;53.552;10.092;2022-11-11T00:36:03;8.93;;;3.55;;
72284;SDS011;60220;53.552;10.092;2022-11-11T00:38:35;8.98;;;3.55;;
72284;SDS011;60220;53.552;10.092;2022-11-11T00:41:19;9.15;;;3.72;;
72284;SDS011;60220;53.552;10.092;2022-11-11T00:43:50;14.32;;;3.58;;
72284;SDS011;60220;53.552;10.092;2022-11-11T00:46:17;8.05;;;3.90;;
72284;SDS011;60220;53.552;10.092;2022-11-11T00:49:01;8.48;;;3.60;;
72284;SDS011;60220;53.552;10.092;2022-11-11T00:51:45;7.85;;;3.33;;
72284;SDS011;60220;53.552;10.092;2022-11-11T00:54:13;10.13;;;4.78;;
72284;SDS011;60220;53.552;10.092;2022-11-11T00:56:42;9.35;;;4.18;;
72284;SDS011;60220;53.552;10.092;2022-11-11T00:59:12;9.95;;;3.60;;
72284;SDS011;60220;53.552;10.092;2022-11-11T01:01:39;11.13;;;4.40;;
72284;SDS011;60220;53.552;10.092;2022-11-11T01:04:05;11.10;;;4.22;;
72284;SDS011;60220;53.552;10.092;2022-11-11T01:06:34;15.48;;;4.20;;
72284;SDS011;60220;53.552;10.092;2022-11-11T01:09:04;10.70;;;4.32;;
72284;SDS011;60220;53.552;10.092;2022-11-11T01:11:33;13.20;;;4.72;;
72284;SDS011;60220;53.552;10.092;2022-11-11T01:13:59;11.07;;;4.13;;
72284;SDS011;60220;53.552;10.092;2022-11-11T01:16:26;11.32;;;3.85;;
72284;SDS011;60220;53.552;10.092;2022-11-11T01:18:54;11.15;;;4.28;;
72284;SDS011;60220;53.552;10.092;2022-11-11T01:21:24;11.98;;;4.18;;
72284;SDS011;60220;53.552;10.092;2022-11-11T01:23:58;8.95;;;4.50;;
72284;SDS011;60220;53.552;10.092;2022-11-11T01:26:26;13.63;;;4.25;;
72284;SDS011;60220;53.552;10.092;2022-11-11T01:28:59;9.85;;;4.32;;
72284;SDS011;60220;53.552;10.092;2022-11-11T01:31:26;15.55;;;4.50;;
72284;SDS011;60220;53.552;10.092;2022-11-11T01:33:52;7.78;;;4.20;;
72284;SDS011;60220;53.552;10.092;2022-11-11T01:36:20;15.82;;;4.07;;
72284;SDS011;60220;53.552;10.092;2022-11-11T01:38:54;9.15;;;4.03;;
72284;SDS011;60220;53.552;10.092;2022-11-11T01:41:25;7.30;;;4.35;;
72284;SDS011;60220;53.552;10.092;2022-11-11T01:44:01;13.05;;;4.80;;
72284;SDS011;60220;53.552;10.092;2022-11-11T01:46:43;11.57;;;4.93;;
72284;SDS011;60220;53.552;10.092;2022-11-11T01:49:18;12.48;;;4.25;;
72284;SDS011;60220;53.552;10.092;2022-11-11T01:51:52;10.30;;;3.92;;
72284;SDS011;60220;53.552;10.092;2022-11-11T01:54:27;8.40;;;4.45;;
72284;SDS011;60220;53.552;10.092;2022-11-11T01:57:05;10.73;;;4.20;;
72284;SDS011;60220;53.552;10.092;2022-11-11T01:59:36;6.97;;;3.90;;
72284;SDS011;60220;53.552;10.092;2022-11-11T02:02:12;13.05;;;4.90;;
72284;SDS011;60220;53.552;10.092;2022-11-11T02:04:45;11.30;;;4.43;;
72284;SDS011;60220;53.552;10.092;2022-11-11T02:07:49;12.43;;;4.40;;
72284;SDS011;60220;53.552;10.092;2022-11-11T02:10:17;8.52;;;3.85;;
72284;SDS011;60220;53.552;10.092;2022-11-11T02:12:47;9.88;;;4.38;;
72284;SDS011;60220;53.552;10.092;2022-11-11T02:15:32;13.45;;;4.38;;
72284;SDS011;60220;53.552;10.092;2022-11-11T02:18:02;8.18;;;4.38;;
72284;SDS011;60220;53.552;10.092;2022-11-11T02:20:33;11.52;;;5.63;;
72284;SDS011;60220;53.552;10.092;2022-11-11T02:23:05;15.98;;;4.88;;
72284;SDS011;60220;53.552;10.092;2022-11-11T02:25:38;10.30;;;5.03;;
72284;SDS011;60220;53.552;10.092;2022-11-11T02:28:13;10.60;;;4.57;;
72284;SDS011;60220;53.552;10.092;2022-11-11T02:31:10;9.02;;;4.93;;
72284;SDS011;60220;53.552;10.092;2022-11-11T02:33:51;21.77;;;4.70;;
72284;SDS011;60220;53.552;10.092;2022-11-11T02:36:21;11.40;;;4.28;;
72284;SDS011;60220;53.552;10.092;2022-11-11T02:38:48;9.93;;;4.55;;
72284;SDS011;60220;53.552;10.092;2022-11-11T02:41:17;16.70;;;4.68;;
72284;SDS011;60220;53.552;10.092;2022-11-11T02:44:02;12.13;;;5.22;;
72284;SDS011;60220;53.552;10.092;2022-11-11T02:46:34;13.75;;;4.82;;
72284;SDS011;60220;53.552;10.092;2022-11-11T02:49:05;14.68;;;4.97;;
72284;SDS011;60220;53.552;10.092;2022-11-11T02:51:36;15.77;;;4.65;;
72284;SDS011;60220;53.552;10.092;2022-11-11T02:54:02;9.43;;;3.90;;
72284;SDS011;60220;53.552;10.092;2022-11-11T02:56:30;12.32;;;4.93;;
72284;SDS011;60220;53.552;10.092;2022-11-11T02:59:14;9.57;;;3.92;;
72284;SDS011;60220;53.552;10.092;2022-11-11T03:04:34;12.77;;;4.55;;
72284;SDS011;60220;53.552;10.092;2022-11-11T03:07:18;11.70;;;4.40;;
72284;SDS011;60220;53.552;10.092;2022-11-11T03:09:50;14.95;;;4.45;;
72284;SDS011;60220;53.552;10.092;2022-11-11T03:12:20;12.05;;;4.65;;
72284;SDS011;60220;53.552;10.092;2022-11-11T03:14:46;8.93;;;4.28;;
72284;SDS011;60220;53.552;10.092;2022-11-11T03:20:08;15.70;;;4.15;;
72284;SDS011;60220;53.552;10.092;2022-11-11T03:22:58;10.35;;;4.18;;
72284;SDS011;60220;53.552;10.092;2022-11-11T03:25:29;12.00;;;4.50;;
72284;SDS011;60220;53.552;10.092;2022-11-11T03:28:07;8.07;;;4.43;;
72284;SDS011;60220;53.552;10.092;2022-11-11T03:30:35;16.83;;;4.78;;
72284;SDS011;60220;53.552;10.092;2022-11-11T03:33:02;10.95;;;4.30;;
72284;SDS011;60220;53.552;10.092;2022-11-11T03:35:32;14.32;;;4.88;;
72284;SDS011;60220;53.552;10.092;2022-11-11T03:38:02;9.18;;;4.18;;
72284;SDS011;60220;53.552;10.092;2022-11-11T03:40:40;12.90;;;4.63;;
72284;SDS011;60220;53.552;10.092;2022-11-11T03:43:11;13.15;;;4.93;;
72284;SDS011;60220;53.552;10.092;2022-11-11T03:45:38;12.02;;;5.95;;
72284;SDS011;60220;53.552;10.092;2022-11-11T03:48:07;14.60;;;5.28;;
72284;SDS011;60220;53.552;10.092;2022-11-11T03:50:43;11.20;;;5.03;;
72284;SDS011;60220;53.552;10.092;2022-11-11T03:53:17;12.10;;;4.82;;
72284;SDS011;60220;53.552;10.092;2022-11-11T03:55:49;15.57;;;4.90;;
72284;SDS011;60220;53.552;10.092;2022-11-11T03:58:18;16.80;;;5.30;;
72284;SDS011;60220;53.552;10.092;2022-11-11T04:00:47;13.65;;;5.00;;
72284;SDS011;60220;53.552;10.092;2022-11-11T04:03:15;11.73;;;4.55;;
72284;SDS011;60220;53.552;10.092;2022-11-11T04:06:02;11.02;;;4.93;;
72284;SDS011;60220;53.552;10.092;2022-11-11T04:08:48;17.95;;;5.50;;
72284;SDS011;60220;53.552;10.092;2022-11-11T04:11:32;9.25;;;4.95;;
72284;SDS011;60220;53.552;10.092;2022-11-11T04:14:05;12.73;;;5.32;;
72284;SDS011;60220;53.552;10.092;2022-11-11T04:16:53;10.57;;;4.68;;
72284;SDS011;60220;53.552;10.092;2022-11-11T04:19:20;11.23;;;4.97;;
72284;SDS011;60220;53.552;10.092;2022-11-11T04:22:04;13.98;;;5.20;;
72284;SDS011;60220;53.552;10.092;2022-11-11T04:24:31;22.45;;;5.78;;
72284;SDS011;60220;53.552;10.092;2022-11-11T04:27:15;10.65;;;4.00;;
72284;SDS011;60220;53.552;10.092;2022-11-11T04:29:45;7.75;;;4.38;;
72284;SDS011;60220;53.552;10.092;2022-11-11T04:32:13;12.07;;;5.32;;
72284;SDS011;60220;53.552;10.092;2022-11-11T04:34:58;17.52;;;5.07;;
72284;SDS011;60220;53.552;10.092;2022-11-11T04:37:31;12.02;;;6.00;;
72284;SDS011;60220;53.552;10.092;2022-11-11T04:39:59;13.27;;;5.93;;
72284;SDS011;60220;53.552;10.092;2022-11-11T04:42:43;14.20;;;5.40;;
72284;SDS011;60220;53.552;10.092;2022-11-11T04:45:14;10.57;;;4.93;;
72284;SDS011;60220;53.552;10.092;2022-11-11T04:47:55;11.35;;;5.35;;
72284;SDS011;60220;53.552;10.092;2022-11-11T04:50:25;12.40;;;5.57;;
72284;SDS011;60220;53.552;10.092;2022-11-11T04:52:53;11.77;;;5.13;;
72284;SDS011;60220;53.552;10.092;2022-11-11T04:55:20;15.05;;;6.13;;
72284;SDS011;60220;53.552;10.092;2022-11-11T04:58:07;11.75;;;5.85;;
72284;SDS011;60220;53.552;10.092;2022-11-11T05:00:38;16.33;;;5.68;;
72284;SDS011;60220;53.552;10.092;2022-11-11T05:03:05;12.38;;;5.95;;
72284;SDS011;60220;53.552;10.092;2022-11-11T05:05:40;17.15;;;6.53;;
72284;SDS011;60220;53.552;10.092;2022-11-11T05:08:26;17.02;;;6.90;;
72284;SDS011;60220;53.552;10.092;2022-11-11T05:11:12;13.40;;;6.60;;
72284;SDS011;60220;53.552;10.092;2022-11-11T05:13:39;13.20;;;5.85;;
72284;SDS011;60220;53.552;10.092;2022-11-11T05:16:27;14.55;;;6.80;;
72284;SDS011;60220;53.552;10.092;2022-11-11T05:19:16;16.55;;;6.90;;
72284;SDS011;60220;53.552;10.092;2022-11-11T05:24:34;23.20;;;7.07;;
72284;SDS011;60220;53.552;10.092;2022-11-11T05:27:18;13.27;;;6.43;;
72284;SDS011;60220;53.552;10.092;2022-11-11T05:29:46;15.40;;;7.50;;
72284;SDS011;60220;53.552;10.092;2022-11-11T05:32:16;19.33;;;6.95;;
72284;SDS011;60220;53.552;10.092;2022-11-11T05:34:44;13.50;;;7.85;;
72284;SDS011;60220;53.552;10.092;2022-11-11T05:37:11;19.13;;;8.70;;
72284;SDS011;60220;53.552;10.092;2022-11-11T05:39:38;23.23;;;8.15;;
72284;SDS011;60220;53.552;10.092;2022-11-11T05:42:04;19.40;;;8.38;;
72284;SDS011;60220;53.552;10.092;2022-11-11T05:44:31;16.77;;;8.32;;
72284;SDS011;60220;53.552;10.092;2022-11-11T05:46:58;16.85;;;8.35;;
72284;SDS011;60220;53.552;10.092;2022-11-11T05:49:26;18.98;;;8.07;;
72284;SDS011;60220;53.552;10.092;2022-11-11T05:51:56;18.77;;;7.63;;
72284;SDS011;60220;53.552;10.092;2022-11-11T05:54:23;16.75;;;7.55;;
72284;SDS011;60220;53.552;10.092;2022-11-11T05:56:50;16.52;;;7.28;;
72284;SDS011;60220;53.552;10.092;2022-11-11T05:59:17;17.33;;;8.27;;
72284;SDS011;60220;53.552;10.092;2022-11-11T06:01:47;13.07;;;7.70;;
72284;SDS011;60220;53.552;10.092;2022-11-11T06:04:16;18.70;;;8.48;;
72284;SDS011;60220;53.552;10.092;2022-11-11T06:06:44;17.85;;;9.15;;
72284;SDS011;60220;53.552;10.092;2022-11-11T06:09:11;20.42;;;8.52;;
72284;SDS011;60220;53.552;10.092;2022-11-11T06:11:38;12.38;;;7.60;;
72284;SDS011;60220;53.552;10.092;2022-11-11T06:14:05;19.33;;;8.02;;
72284;SDS011;60220;53.552;10.092;2022-11-11T06:16:32;19.67;;;9.10;;
72284;SDS011;60220;53.552;10.092;2022-11-11T06:18:58;24.02;;;9.18;;
72284;SDS011;60220;53.552;10.092;2022-11-11T06:21:28;17.48;;;9.48;;
72284;SDS011;60220;53.552;10.092;2022-11-11T06:23:57;22.20;;;10.60;;
72284;SDS011;60220;53.552;10.092;2022-11-11T06:26:23;16.08;;;9.40;;
72284;SDS011;60220;53.552;10.092;2022-11-11T06:28:51;26.13;;;9.73;;
72284;SDS011;60220;53.552;10.092;2022-11-11T06:31:19;22.83;;;9.48;;
72284;SDS011;60220;53.552;10.092;2022-11-11T06:33:47;23.83;;;10.10;;
72284;SDS011;60220;53.552;10.092;2022-11-11T06:36:14;25.33;;;9.25;;
72284;SDS011;60220;53.552;10.092;2022-11-11T06:38:42;20.83;;;9.68;;
72284;SDS011;60220;53.552;10.092;2022-11-11T06:41:13;20.67;;;9.50;;
72284;SDS011;60220;53.552;10.092;2022-11-11T06:43:40;20.17;;;9.65;;
72284;SDS011;60220;53.552;10.092;2022-11-11T06:46:12;23.23;;;10.25;;
72284;SDS011;60220;53.552;10.092;2022-11-11T06:48:43;60.63;;;12.82;;
72284;SDS011;60220;53.552;10.092;2022-11-11T06:51:12;26.52;;;10.55;;
72284;SDS011;60220;53.552;10.092;2022-11-11T06:53:39;27.35;;;9.90;;
72284;SDS011;60220;53.552;10.092;2022-11-11T06:56:06;17.73;;;10.30;;
72284;SDS011;60220;53.552;10.092;2022-11-11T06:58:35;23.33;;;9.95;;
72284;SDS011;60220;53.552;10.092;2022-11-11T07:01:03;18.75;;;9.38;;
72284;SDS011;60220;53.552;10.092;2022-11-11T07:03:31;18.95;;;9.70;;
72284;SDS011;60220;53.552;10.092;2022-11-11T07:05:59;22.65;;;10.68;;
72284;SDS011;60220;53.552;10.092;2022-11-11T07:08:26;23.90;;;10.27;;
72284;SDS011;60220;53.552;10.092;2022-11-11T07:10:53;19.33;;;10.77;;
72284;SDS011;60220;53.552;10.092;2022-11-11T07:13:20;25.83;;;10.20;;
72284;SDS011;60220;53.552;10.092;2022-11-11T07:15:48;25.83;;;10.95;;
72284;SDS011;60220;53.552;10.092;2022-11-11T07:18:15;19.48;;;11.07;;
72284;SDS011;60220;53.552;10.092;2022-11-11T07:20:42;23.92;;;12.07;;
72284;SDS011;60220;53.552;10.092;2022-11-11T07:23:11;23.80;;;10.55;;
72284;SDS011;60220;53.552;10.092;2022-11-11T07:25:38;25.67;;;11.30;;
72284;SDS011;60220;53.552;10.092;2022-11-11T07:28:04;26.13;;;11.55;;
72284;SDS011;60220;53.552;10.092;2022-11-11T07:30:32;17.35;;;9.43;;
72284;SDS011;60220;53.552;10.092;2022-11-11T07:33:00;20.08;;;9.68;;
72284;SDS011;60220;53.552;10.092;2022-11-11T07:35:26;22.20;;;10.13;;
72284;SDS011;60220;53.552;10.092;2022-11-11T07:37:53;59.05;;;29.15;;
72284;SDS011;60220;53.552;10.092;2022-11-11T07:40:20;24.08;;;11.88;;
72284;SDS011;60220;53.552;10.092;2022-11-11T07:42:47;26.33;;;11.55;;
72284;SDS011;60220;53.552;10.092;2022-11-11T07:45:16;22.75;;;10.57;;
72284;SDS011;60220;53.552;10.092;2022-11-11T07:47:43;30.40;;;11.35;;
72284;SDS011;60220;53.552;10.092;2022-11-11T07:50:13;23.85;;;12.52;;
72284;SDS011;60220;53.552;10.092;2022-11-11T07:52:47;24.00;;;11.25;;
72284;SDS011;60220;53.552;10.092;2022-11-11T07:55:14;28.33;;;11.88;;
72284;SDS011;60220;53.552;10.092;2022-11-11T07:57:41;28.98;;;12.35;;
72284;SDS011;60220;53.552;10.092;2022-11-11T08:00:10;31.52;;;12.35;;
72284;SDS011;60220;53.552;10.092;2022-11-11T08:02:40;29.65;;;12.95;;
72284;SDS011;60220;53.552;10.092;2022-11-11T08:05:13;24.95;;;11.63;;
72284;SDS011;60220;53.552;10.092;2022-11-11T08:07:42;26.35;;;12.45;;
72284;SDS011;60220;53.552;10.092;2022-11-11T08:10:10;31.83;;;14.02;;
72284;SDS011;60220;53.552;10.092;2022-11-11T08:12:39;28.00;;;11.07;;
72284;SDS011;60220;53.552;10.092;2022-11-11T08:15:25;23.85;;;12.40;;
72284;SDS011;60220;53.552;10.092;2022-11-11T08:17:52;31.67;;;12.60;;
72284;SDS011;60220;53.552;10.092;2022-11-11T08:20:23;28.88;;;13.70;;
72284;SDS011;60220;53.552;10.092;2022-11-11T08:22:49;20.33;;;11.70;;
72284;SDS011;60220;53.552;10.092;2022-11-11T08:25:19;25.70;;;12.68;;
72284;SDS011;60220;53.552;10.092;2022-11-11T08:27:47;24.42;;;12.27;;
72284;SDS011;60220;53.552;10.092;2022-11-11T08:30:14;29.23;;;12.82;;
72284;SDS011;60220;53.552;10.092;2022-11-11T08:32:40;29.65;;;13.32;;
72284;SDS011;60220;53.552;10.092;2022-11-11T08:35:07;24.10;;;11.95;;
72284;SDS011;60220;53.552;10.092;2022-11-11T08:37:35;25.15;;;12.00;;
72284;SDS011;60220;53.552;10.092;2022-11-11T08:40:02;22.10;;;11.65;;
72284;SDS011;60220;53.552;10.092;2022-11-11T08:42:29;22.58;;;12.05;;
72284;SDS011;60220;53.552;10.092;2022-11-11T08:44:56;21.35;;;12.23;;
72284;SDS011;60220;53.552;10.092;2022-11-11T08:47:25;26.27;;;12.82;;
72284;SDS011;60220;53.552;10.092;2022-11-11T08:49:52;25.88;;;11.55;;
72284;SDS011;60220;53.552;10.092;2022-11-11T08:52:19;29.95;;;12.63;;
72284;SDS011;60220;53.552;10.092;2022-11-11T08:54:47;30.05;;;12.57;;
72284;SDS011;60220;53.552;10.092;2022-11-11T08:57:14;20.77;;;11.70;;
72284;SDS011;60220;53.552;10.092;2022-11-11T08:59:42;26.27;;;12.63;;
72284;SDS011;60220;53.552;10.092;2022-11-11T09:02:12;25.13;;;11.65;;
72284;SDS011;60220;53.552;10.092;2022-11-11T09:04:46;23.42;;;12.70;;
72284;SDS011;60220;53.552;10.092;2022-11-11T09:07:13;29.10;;;13.23;;
72284;SDS011;60220;53.552;10.092;2022-11-11T09:09:40;21.50;;;11.35;;
72284;SDS011;60220;53.552;10.092;2022-11-11T09:12:08;25.55;;;12.60;;
72284;SDS011;60220;53.552;10.092;2022-11-11T09:14:34;31.42;;;12.95;;
72284;SDS011;60220;53.552;10.092;2022-11-11T09:17:01;28.25;;;14.10;;
72284;SDS011;60220;53.552;10.092;2022-11-11T09:19:28;31.45;;;14.15;;
72284;SDS011;60220;53.552;10.092;2022-11-11T09:21:57;30.40;;;12.93;;
72284;SDS011;60220;53.552;10.092;2022-11-11T09:24:24;27.90;;;13.32;;
72284;SDS011;60220;53.552;10.092;2022-11-11T09:26:50;29.52;;;13.88;;
72284;SDS011;60220;53.552;10.092;2022-11-11T09:29:21;25.83;;;12.07;;
72284;SDS011;60220;53.552;10.092;2022-11-11T09:31:47;25.15;;;13.65;;
72284;SDS011;60220;53.552;10.092;2022-11-11T09:34:14;27.95;;;11.73;;
72284;SDS011;60220;53.552;10.092;2022-11-11T09:36:41;23.35;;;12.65;;
72284;SDS011;60220;53.552;10.092;2022-11-11T09:39:08;35.17;;;17.05;;
72284;SDS011;60220;53.552;10.092;2022-11-11T09:41:41;29.00;;;12.50;;
72284;SDS011;60220;53.552;10.092;2022-11-11T09:44:17;23.77;;;12.95;;
72284;SDS011;60220;53.552;10.092;2022-11-11T09:47:01;29.50;;;13.82;;
72284;SDS011;60220;53.552;10.092;2022-11-11T09:49:42;24.58;;;13.13;;
72284;SDS011;60220;53.552;10.092;2022-11-11T09:52:17;39.10;;;13.32;;
72284;SDS011;60220;53.552;10.092;2022-11-11T09:54:47;22.67;;;12.73;;
72284;SDS011;60220;53.552;10.092;2022-11-11T09:57:21;25.58;;;12.50;;
72284;SDS011;60220;53.552;10.092;2022-11-11T09:59:59;30.88;;;13.35;;
72284;SDS011;60220;53.552;10.092;2022-11-11T10:02:29;26.23;;;12.45;;
72284;SDS011;60220;53.552;10.092;2022-11-11T10:05:05;27.33;;;13.52;;
72284;SDS011;60220;53.552;10.092;2022-11-11T10:07:39;23.50;;;12.77;;
72284;SDS011;60220;53.552;10.092;2022-11-11T10:10:25;25.33;;;13.15;;
72284;SDS011;60220;53.552;10.092;2022-11-11T10:12:57;27.35;;;12.88;;
72284;SDS011;60220;53.552;10.092;2022-11-11T10:15:28;30.48;;;13.20;;
72284;SDS011;60220;53.552;10.092;2022-11-11T10:18:07;36.40;;;18.92;;
72284;SDS011;60220;53.552;10.092;2022-11-11T10:20:47;25.92;;;12.65;;
72284;SDS011;60220;53.552;10.092;2022-11-11T10:23:20;24.90;;;11.98;;
72284;SDS011;60220;53.552;10.092;2022-11-11T10:25:53;24.85;;;11.90;;
72284;SDS011;60220;53.552;10.092;2022-11-11T10:28:24;31.10;;;12.68;;
72284;SDS011;60220;53.552;10.092;2022-11-11T10:30:56;23.55;;;12.10;;
72284;SDS011;60220;53.552;10.092;2022-11-11T10:33:27;24.30;;;11.75;;
72284;SDS011;60220;53.552;10.092;2022-11-11T10:35:59;24.92;;;12.23;;
72284;SDS011;60220;53.552;10.092;2022-11-11T10:38:32;21.58;;;13.07;;
72284;SDS011;60220;53.552;10.092;2022-11-11T10:41:05;18.50;;;12.23;;
72284;SDS011;60220;53.552;10.092;2022-11-11T10:43:43;24.27;;;12.25;;
72284;SDS011;60220;53.552;10.092;2022-11-11T10:46:14;24.80;;;12.68;;
72284;SDS011;60220;53.552;10.092;2022-11-11T10:48:47;24.20;;;12.13;;
72284;SDS011;60220;53.552;10.092;2022-11-11T10:51:20;20.90;;;11.85;;
72284;SDS011;60220;53.552;10.092;2022-11-11T10:53:51;19.33;;;11.48;;
72284;SDS011;60220;53.552;10.092;2022-11-11T10:56:27;23.25;;;11.70;;
72284;SDS011;60220;53.552;10.092;2022-11-11T10:59:00;29.05;;;11.30;;
72284;SDS011;60220;53.552;10.092;2022-11-11T11:01:33;20.23;;;12.13;;
72284;SDS011;60220;53.552;10.092;2022-11-11T11:04:05;23.23;;;11.27;;
72284;SDS011;60220;53.552;10.092;2022-11-11T11:06:41;23.45;;;11.75;;
72284;SDS011;60220;53.552;10.092;2022-11-11T11:11:43;19.92;;;11.65;;
72284;SDS011;60220;53.552;10.092;2022-11-11T11:14:18;21.05;;;11.25;;
72284;SDS011;60220;53.552;10.092;2022-11-11T11:16:51;23.85;;;12.13;;
72284;SDS011;60220;53.552;10.092;2022-11-11T11:19:21;24.35;;;12.30;;
72284;SDS011;60220;53.552;10.092;2022-11-11T11:21:50;22.83;;;12.35;;
72284;SDS011;60220;53.552;10.092;2022-11-11T11:24:23;26.65;;;12.70;;
72284;SDS011;60220;53.552;10.092;2022-11-11T11:26:53;22.60;;;12.43;;
72284;SDS011;60220;53.552;10.092;2022-11-11T11:29:25;18.27;;;11.82;;
72284;SDS011;60220;53.552;10.092;2022-11-11T11:31:55;20.73;;;11.68;;
72284;SDS011;60220;53.552;10.092;2022-11-11T11:34:43;22.02;;;12.20;;
72284;SDS011;60220;53.552;10.092;2022-11-11T11:37:11;24.73;;;12.23;;
72284;SDS011;60220;53.552;10.092;2022-11-11T11:39:39;22.10;;;11.90;;
72284;SDS011;60220;53.552;10.092;2022-11-11T11:42:06;21.80;;;11.65;;
72284;SDS011;60220;53.552;10.092;2022-11-11T11:44:33;20.08;;;12.27;;
72284;SDS011;60220;53.552;10.092;2022-11-11T11:47:05;29.20;;;13.43;;
72284;SDS011;60220;53.552;10.092;2022-11-11T11:49:54;25.17;;;12.20;;
72284;SDS011;60220;53.552;10.092;2022-11-11T11:52:36;30.17;;;13.45;;
72284;SDS011;60220;53.552;10.092;2022-11-11T11:55:10;26.08;;;12.60;;
72284;SDS011;60220;53.552;10.092;2022-11-11T11:57:44;20.10;;;11.98;;
72284;SDS011;60220;53.552;10.092;2022-11-11T12:00:19;20.25;;;11.32;;
72284;SDS011;60220;53.552;10.092;2022-11-11T12:05:49;25.58;;;12.13;;
72284;SDS011;60220;53.552;10.092;2022-11-11T12:08:34;25.48;;;13.57;;
72284;SDS011;60220;53.552;10.092;2022-11-11T12:11:08;24.52;;;12.70;;
72284;SDS011;60220;53.552;10.092;2022-11-11T12:13:48;23.85;;;12.93;;
72284;SDS011;60220;53.552;10.092;2022-11-11T12:16:32;22.58;;;12.43;;
72284;SDS011;60220;53.552;10.092;2022-11-11T12:19:16;27.50;;;12.30;;
72284;SDS011;60220;53.552;10.092;2022-11-11T12:21:57;22.00;;;12.65;;
72284;SDS011;60220;53.552;10.092;2022-11-11T12:24:37;23.80;;;12.02;;
72284;SDS011;60220;53.552;10.092;2022-11-11T12:27:15;37.20;;;18.42;;
72284;SDS011;60220;53.552;10.092;2022-11-11T12:29:52;26.40;;;13.05;;
72284;SDS011;60220;53.552;10.092;2022-11-11T12:32:31;23.00;;;11.50;;
72284;SDS011;60220;53.552;10.092;2022-11-11T12:35:14;21.45;;;11.98;;
72284;SDS011;60220;53.552;10.092;2022-11-11T12:37:49;20.20;;;11.82;;
72284;SDS011;60220;53.552;10.092;2022-11-11T12:40:31;26.00;;;12.93;;
72284;SDS011;60220;53.552;10.092;2022-11-11T12:43:11;20.50;;;11.30;;
72284;SDS011;60220;53.552;10.092;2022-11-11T12:45:47;24.45;;;11.65;;
72284;SDS011;60220;53.552;10.092;2022-11-11T12:48:32;21.25;;;10.75;;
72284;SDS011;60220;53.552;10.092;2022-11-11T12:51:15;21.42;;;11.25;;
72284;SDS011;60220;53.552;10.092;2022-11-11T12:53:50;24.58;;;11.00;;
72284;SDS011;60220;53.552;10.092;2022-11-11T12:56:27;19.25;;;11.38;;
72284;SDS011;60220;53.552;10.092;2022-11-11T12:58:59;18.98;;;10.30;;
72284;SDS011;60220;53.552;10.092;2022-11-11T13:01:39;14.93;;;9.95;;
72284;SDS011;60220;53.552;10.092;2022-11-11T13:07:33;17.90;;;10.30;;
72284;SDS011;60220;53.552;10.092;2022-11-11T13:10:13;20.20;;;10.95;;
72284;SDS011;60220;53.552;10.092;2022-11-11T13:12:51;16.88;;;10.52;;
72284;SDS011;60220;53.552;10.092;2022-11-11T13:15:25;17.58;;;9.75;;
72284;SDS011;60220;53.552;10.092;2022-11-11T13:17:52;17.17;;;10.40;;
72284;SDS011;60220;53.552;10.092;2022-11-11T13:20:22;19.45;;;9.98;;
72284;SDS011;60220;53.552;10.092;2022-11-11T13:23:08;16.75;;;9.68;;
72284;SDS011;60220;53.552;10.092;2022-11-11T13:25:37;19.60;;;9.00;;
72284;SDS011;60220;53.552;10.092;2022-11-11T13:28:07;19.83;;;9.98;;
72284;SDS011;60220;53.552;10.092;2022-11-11T13:30:50;19.50;;;10.57;;
72284;SDS011;60220;53.552;10.092;2022-11-11T13:33:35;16.40;;;9.63;;
72284;SDS011;60220;53.552;10.092;2022-11-11T13:36:05;18.63;;;10.70;;
72284;SDS011;60220;53.552;10.092;2022-11-11T13:38:37;21.45;;;9.75;;
72284;SDS011;60220;53.552;10.092;2022-11-11T13:41:21;21.65;;;10.15;;
72284;SDS011;60220;53.552;10.092;2022-11-11T13:43:54;22.27;;;9.77;;
72284;SDS011;60220;53.552;10.092;2022-11-11T13:46:31;14.93;;;9.85;;
72284;SDS011;60220;53.552;10.092;2022-11-11T13:49:01;15.23;;;10.00;;
72284;SDS011;60220;53.552;10.092;2022-11-11T13:51:32;21.20;;;10.52;;
72284;SDS011;60220;53.552;10.092;2022-11-11T13:54:04;18.02;;;11.35;;
72284;SDS011;60220;53.552;10.092;2022-11-11T13:56:45;19.33;;;10.13;;
72284;SDS011;60220;53.552;10.092;2022-11-11T13:59:18;19.15;;;10.85;;
72284;SDS011;60220;53.552;10.092;2022-11-11T14:01:50;16.98;;;11.18;;
72284;SDS011;60220;53.552;10.092;2022-11-11T14:07:48;15.95;;;10.32;;
72284;SDS011;60220;53.552;10.092;2022-11-11T14:16:02;18.67;;;10.85;;
72284;SDS011;60220;53.552;10.092;2022-11-11T14:18:33;21.52;;;11.65;;
72284;SDS011;60220;53.552;10.092;2022-11-11T14:23:32;25.27;;;12.02;;
72284;SDS011;60220;53.552;10.092;2022-11-11T14:28:57;18.10;;;11.32;;
72284;SDS011;60220;53.552;10.092;2022-11-11T14:31:34;21.42;;;11.70;;
72284;SDS011;60220;53.552;10.092;2022-11-11T14:34:22;18.92;;;12.50;;
72284;SDS011;60220;53.552;10.092;2022-11-11T14:37:00;20.88;;;12.98;;
72284;SDS011;60220;53.552;10.092;2022-11-11T14:39:38;22.10;;;12.38;;
72284;SDS011;60220;53.552;10.092;2022-11-11T14:54:20;18.67;;;11.13;;
72284;SDS011;60220;53.552;10.092;2022-11-11T14:56:54;18.35;;;11.73;;
72284;SDS011;60220;53.552;10.092;2022-11-11T14:59:26;19.73;;;11.57;;
72284;SDS011;60220;53.552;10.092;2022-11-11T15:01:58;25.40;;;16.85;;
72284;SDS011;60220;53.552;10.092;2022-11-11T15:04:26;22.33;;;14.40;;
72284;SDS011;60220;53.552;10.092;2022-11-11T15:07:01;22.17;;;11.82;;
72284;SDS011;60220;53.552;10.092;2022-11-11T15:09:35;23.60;;;11.93;;
72284;SDS011;60220;53.552;10.092;2022-11-11T15:12:23;22.00;;;13.02;;
72284;SDS011;60220;53.552;10.092;2022-11-11T15:15:00;19.85;;;11.82;;
72284;SDS011;60220;53.552;10.092;2022-11-11T15:17:37;18.88;;;11.85;;
72284;SDS011;60220;53.552;10.092;2022-11-11T15:20:30;20.05;;;12.20;;
72284;SDS011;60220;53.552;10.092;2022-11-11T15:23:15;22.23;;;11.77;;
72284;SDS011;60220;53.552;10.092;2022-11-11T15:25:51;21.83;;;13.13;;
72284;SDS011;60220;53.552;10.092;2022-11-11T15:28:32;17.65;;;11.60;;
72284;SDS011;60220;53.552;10.092;2022-11-11T15:31:13;21.17;;;11.27;;